Time;durP1;ratioP1;P1;durP2;ratioP2;P2;SDS_P1;SDS_P2;PMS_P1;PMS_P2;Temp;Humidity;BMP_temperature;BMP_pressure;BME280_temperature;BME280_humidity;BME280_pressure;Samples;Min_cycle;Max_cycle;Signal;HPM_P1;HPM_P2
2022/03/13 00:01:03;;;;;;;;;83.00;64.00;;;;;0.86;66.09;102513.53;146606;602;47011;-74
2022/03/13 00:03:56;;;;;;;;;80.33;60.67;;;;;0.80;65.57;102507.72;146602;625;46012;-71
2022/03/13 00:06:48;;;;;;;;;78.00;59.33;;;;;0.80;65.37;102506.81;146601;569;46020;-71
2022/03/13 00:09:41;;;;;;;;;78.00;59.33;;;;;0.85;65.45;102506.62;146600;587;46016;-71
2022/03/13 00:12:34;;;;;;;;;66.75;51.50;;;;;0.93;65.43;102502.41;146601;643;46010;-71
2022/03/13 00:15:39;;;;;;;;;70.00;54.25;;;;;1.01;64.65;102500.78;146598;607;46017;-72
2022/03/13 00:18:32;;;;;;;;;59.25;47.25;;;;;1.06;64.71;102499.66;146602;580;46010;-69
2022/03/13 00:21:24;;;;;;;;;63.50;48.50;;;;;1.11;65.10;102496.91;146597;599;46016;-71
2022/03/13 00:24:20;;;;;;;;;61.25;50.50;;;;;1.19;64.71;102500.38;146604;620;46012;-70
2022/03/13 00:27:13;;;;;;;;;58.75;47.25;;;;;1.24;64.94;102496.69;146598;716;46012;-70
2022/03/13 00:30:08;;;;;;;;;55.25;46.00;;;;;1.25;65.34;102484.84;146602;596;46010;-70
2022/03/13 00:33:00;;;;;;;;;62.50;47.25;;;;;1.29;64.85;102489.56;146599;680;46016;-71
2022/03/13 00:35:53;;;;;;;;;59.50;48.00;;;;;1.30;64.88;102497.41;146603;627;46010;-71
2022/03/13 00:38:45;;;;;;;;;57.75;45.25;;;;;1.32;64.81;102500.16;146602;570;46014;-75
2022/03/13 00:41:38;;;;;;;;;60.00;46.50;;;;;1.34;64.96;102494.50;146601;614;46010;-76
2022/03/13 00:44:29;;;;;;;;;69.25;54.00;;;;;1.32;65.91;102489.94;146600;596;46014;-75
2022/03/13 00:47:23;;;;;;;;;67.75;54.00;;;;;1.27;65.38;102499.59;146601;650;46010;-76
2022/03/13 00:50:16;;;;;;;;;68.75;53.50;;;;;1.23;65.97;102486.31;146598;573;46016;-77
2022/03/13 00:53:08;;;;;;;;;69.00;52.25;;;;;1.19;65.96;102486.69;146604;610;46012;-78
2022/03/13 00:56:01;;;;;;;;;72.33;56.00;;;;;1.19;66.12;102489.25;146600;602;46016;-74
2022/03/13 00:58:53;;;;;;;;;69.75;53.25;;;;;1.18;65.90;102483.19;146602;585;46020;-75
2022/03/13 01:01:45;;;;;;;;;63.75;51.50;;;;;1.21;65.87;102473.34;146601;672;46016;-80
2022/03/13 01:04:37;;;;;;;;;71.50;54.75;;;;;1.19;65.75;102467.16;146602;564;46010;-83
2022/03/13 01:07:29;;;;;;;;;75.33;57.00;;;;;1.21;65.62;102459.66;146600;620;46917;-89
2022/03/13 01:10:21;;;;;;;;;79.00;60.00;;;;;1.22;65.27;102444.53;146605;564;46020;-86
2022/03/13 01:13:13;;;;;;;;;61.25;47.00;;;;;1.24;65.60;102444.69;146600;618;46025;-83
2022/03/13 01:16:27;;;;;;;;;54.50;41.00;;;;;1.28;65.00;102444.31;146602;616;46010;-81
2022/03/13 01:19:18;;;;;;;;;58.75;47.25;;;;;1.34;64.74;102450.09;146598;564;46029;-82
2022/03/13 01:22:11;;;;;;;;;54.75;46.00;;;;;1.34;66.16;102443.37;146605;565;46021;-74
2022/03/13 01:25:03;;;;;;;;;58.25;46.25;;;;;1.27;65.05;102439.94;146601;582;46016;-74
2022/03/13 01:27:55;;;;;;;;;57.75;48.00;;;;;1.14;65.50;102420.63;146604;577;45021;-74
2022/03/13 01:30:48;;;;;;;;;59.00;46.25;;;;;1.05;65.00;102427.22;146600;612;46017;-75
2022/03/13 01:33:40;;;;;;;;;58.25;46.75;;;;;1.00;64.93;102430.91;146607;572;45020;-76
2022/03/13 01:36:32;;;;;;;;;62.75;46.50;;;;;0.99;65.23;102425.59;146598;594;46014;-75
2022/03/13 01:39:24;;;;;;;;;61.25;47.75;;;;;1.01;65.07;102421.59;146600;569;46020;-75
2022/03/13 01:42:17;;;;;;;;;62.00;49.50;;;;;1.06;65.13;102423.94;146600;628;46016;-75
2022/03/13 01:45:11;;;;;;;;;68.50;54.00;;;;;1.03;65.20;102420.09;146604;581;46021;-76
2022/03/13 01:48:02;;;;;;;;;68.25;52.75;;;;;0.98;65.01;102422.13;146601;617;46012;-75
2022/03/13 01:50:55;;;;;;;;;65.75;52.25;;;;;0.95;64.75;102423.44;146608;649;46010;-76
2022/03/13 01:53:48;;;;;;;;;63.00;48.00;;;;;0.92;64.91;102426.53;146602;577;45037;-76
2022/03/13 01:56:41;;;;;;;;;61.00;49.75;;;;;0.88;64.99;102424.38;146601;586;46010;-75
2022/03/13 01:59:33;;;;;;;;;69.75;51.25;;;;;0.83;65.18;102425.47;146601;564;46012;-72
2022/03/13 02:02:27;;;;;;;;;58.25;46.25;;;;;0.77;65.49;102414.53;146602;570;46010;-72
2022/03/13 02:05:37;;;;;;;;;56.75;44.00;;;;;0.65;65.03;102412.38;146602;581;46017;-73
2022/03/13 02:08:29;;;;;;;;;54.25;43.25;;;;;0.58;65.35;102421.66;146601;728;46020;-71
2022/03/13 02:11:24;;;;;;;;;60.00;44.25;;;;;0.54;65.34;102412.75;146599;565;46016;-76
2022/03/13 02:14:17;;;;;;;;;51.25;41.25;;;;;0.50;65.62;102419.84;146602;570;46021;-76
2022/03/13 02:17:09;;;;;;;;;50.75;40.00;;;;;0.43;66.43;102419.09;146598;586;47012;-74
2022/03/13 02:20:01;;;;;;;;;44.00;35.00;;;;;0.39;66.26;102426.25;146604;584;46010;-73
2022/03/13 02:22:57;;;;;;;;;47.50;37.25;;;;;0.32;65.88;102429.69;146596;723;46921;-72
2022/03/13 02:26:02;;;;;;;;;44.75;37.75;;;;;0.31;66.82;102422.78;146603;607;46010;-72
2022/03/13 02:28:59;;;;;;;;;50.75;39.00;;;;;0.28;66.04;102417.31;146599;613;46014;-72
2022/03/13 02:31:52;;;;;;;;;35.25;32.25;;;;;0.23;65.88;102409.09;146603;573;46020;-72
2022/03/13 02:34:44;;;;;;;;;37.75;35.25;;;;;0.25;66.58;102410.91;146599;648;46017;-72
2022/03/13 02:37:44;;;;;;;;;45.25;36.00;;;;;0.21;66.14;102414.75;146599;569;46021;-73
2022/03/13 02:40:36;;;;;;;;;51.25;39.75;;;;;0.22;66.02;102414.03;146600;600;46016;-75
2022/03/13 02:43:28;;;;;;;;;40.25;35.25;;;;;0.21;66.34;102414.75;146602;605;46010;-73
2022/03/13 02:46:25;;;;;;;;;40.25;33.50;;;;;0.20;65.90;102402.72;146600;565;46016;-73
2022/03/13 02:49:19;;;;;;;;;48.00;38.75;;;;;0.19;66.72;102409.47;146601;616;46011;-72
2022/03/13 02:52:11;;;;;;;;;57.75;43.00;;;;;0.16;65.67;102401.47;146599;607;46016;-77
2022/03/13 02:55:03;;;;;;;;;53.75;42.25;;;;;0.17;66.22;102405.81;146600;588;47010;-76
2022/03/13 02:57:55;;;;;;;;;42.25;36.25;;;;;0.23;67.11;102400.53;146600;566;46016;-78
2022/03/13 03:00:55;;;;;;;;;37.75;35.00;;;;;0.32;66.72;102404.19;146601;565;46010;-74
2022/03/13 03:03:46;;;;;;;;;43.75;38.50;;;;;0.45;66.23;102401.44;146600;600;46012;-79
2022/03/13 03:06:40;;;;;;;;;45.25;37.25;;;;;0.59;65.97;102403.06;146599;576;47012;-78
2022/03/13 03:09:35;;;;;;;;;48.25;36.25;;;;;0.75;65.84;102415.97;146597;622;46921;-79
2022/03/13 03:12:27;;;;;;;;;51.50;37.25;;;;;0.83;65.28;102411.03;146607;596;46032;-77
2022/03/13 03:15:24;;;;;;;;;45.50;38.25;;;;;0.93;64.74;102415.56;146601;665;46016;-82
2022/03/13 03:18:16;;;;;;;;;48.25;38.25;;;;;1.01;64.66;102402.06;146604;616;46010;-83
2022/03/13 03:21:08;;;;;;;;;43.00;35.00;;;;;1.08;64.35;102407.13;146600;595;46016;-82
2022/03/13 03:24:00;;;;;;;;;41.25;35.00;;;;;1.16;64.09;102410.59;146602;704;46027;-81
2022/03/13 03:26:53;;;;;;;;;37.25;35.75;;;;;1.20;63.95;102419.50;146601;742;46017;-77
2022/03/13 03:29:45;;;;;;;;;44.50;38.00;;;;;1.22;63.54;102403.63;146602;588;46021;-78
2022/03/13 03:32:38;;;;;;;;;37.50;33.25;;;;;1.24;63.53;102404.69;146595;587;48921;-77
2022/03/13 03:35:30;;;;;;;;;46.50;36.75;;;;;1.25;63.27;102406.53;146602;623;46010;-81
2022/03/13 03:38:22;;;;;;;;;42.00;36.25;;;;;1.25;62.90;102396.31;146625;603;46012;-78
2022/03/13 03:41:14;;;;;;;;;38.25;34.25;;;;;1.28;62.90;102409.44;146628;599;45020;-75
2022/03/13 03:44:06;;;;;;;;;35.50;31.75;;;;;1.29;63.46;102407.81;146624;563;45921;-75
2022/03/13 03:46:59;;;;;;;;;39.75;34.00;;;;;1.30;63.00;102407.97;146628;598;45020;-75
2022/03/13 03:49:51;;;;;;;;;47.00;38.75;;;;;1.29;62.50;102413.81;146629;677;45012;-74
2022/03/13 03:52:44;;;;;;;;;44.25;38.25;;;;;1.29;62.56;102405.25;146629;565;45010;-74
2022/03/13 03:55:36;;;;;;;;;50.75;39.00;;;;;1.25;62.22;102404.00;146627;563;45010;-74
2022/03/13 03:58:29;;;;;;;;;55.50;40.00;;;;;1.21;62.50;102406.00;146628;633;45010;-75
2022/03/13 04:01:20;;;;;;;;;52.50;38.75;;;;;1.17;62.45;102402.19;146629;565;45014;-73
2022/03/13 04:04:13;;;;;;;;;41.00;34.75;;;;;1.15;62.82;102403.63;146631;706;45010;-76
2022/03/13 04:07:05;;;;;;;;;47.25;39.00;;;;;1.13;63.24;102397.47;146627;685;45033;-74
2022/03/13 04:09:58;;;;;;;;;57.25;45.50;;;;;1.06;62.79;102406.06;146630;625;45020;-76
2022/03/13 04:12:50;;;;;;;;;60.50;45.25;;;;;0.97;62.89;102405.00;146626;628;45016;-77
2022/03/13 04:15:42;;;;;;;;;45.75;38.00;;;;;0.89;62.59;102408.28;146630;586;46011;-72
2022/03/13 04:18:34;;;;;;;;;55.00;43.75;;;;;0.82;62.98;102405.78;146626;566;45024;-72
2022/03/13 04:21:27;;;;;;;;;43.25;36.75;;;;;0.73;62.84;102404.69;146624;578;46917;-73
2022/03/13 04:24:19;;;;;;;;;65.75;51.25;;;;;0.60;62.91;102400.69;146629;577;45012;-75
2022/03/13 04:27:12;;;;;;;;;58.00;44.50;;;;;0.51;63.17;102404.72;146629;578;45011;-74
2022/03/13 04:30:04;;;;;;;;;53.00;42.75;;;;;0.42;62.94;102412.19;146626;663;45029;-75
2022/03/13 04:32:57;;;;;;;;;45.75;38.25;;;;;0.32;63.40;102414.41;146629;569;45010;-74
2022/03/13 04:35:50;;;;;;;;;34.25;32.00;;;;;0.23;63.66;102414.22;146627;565;45035;-75
2022/03/13 04:38:42;;;;;;;;;36.00;34.25;;;;;0.18;63.50;102410.19;146603;610;46020;-75
2022/03/13 04:41:34;;;;;;;;;33.75;30.25;;;;;0.17;63.91;102412.56;146600;566;46016;-75
2022/03/13 04:44:26;;;;;;;;;36.00;33.50;;;;;0.16;64.70;102408.22;146601;600;46010;-73
2022/03/13 04:47:18;;;;;;;;;33.75;31.50;;;;;0.10;64.06;102413.47;146599;563;46012;-74
2022/03/13 04:50:11;;;;;;;;;41.75;34.50;;;;;0.04;63.91;102411.84;146602;592;47010;-73
2022/03/13 04:53:03;;;;;;;;;34.75;31.25;;;;;0.06;64.54;102418.00;146600;664;46016;-73
2022/03/13 04:55:56;;;;;;;;;59.75;49.25;;;;;0.06;64.07;102418.91;146601;571;47010;-73
2022/03/13 04:58:48;;;;;;;;;41.25;33.75;;;;;0.05;64.47;102427.31;146601;625;46014;-73
2022/03/13 05:01:40;;;;;;;;;56.25;41.00;;;;;0.05;64.37;102422.22;146603;569;46020;-76
2022/03/13 05:04:32;;;;;;;;;55.00;42.25;;;;;0.06;64.61;102425.66;146600;652;46017;-76
2022/03/13 05:07:25;;;;;;;;;56.75;47.75;;;;;0.04;64.74;102424.59;146602;634;46010;-76
2022/03/13 05:10:20;;;;;;;;;57.75;42.00;;;;;0.04;65.50;102429.69;146600;581;46016;-76
2022/03/13 05:13:14;;;;;;;;;58.50;47.00;;;;;0.02;65.98;102436.22;146600;618;46021;-71
2022/03/13 05:16:06;;;;;;;;;50.75;39.25;;;;;-0.09;66.69;102442.59;146594;609;47921;-70
2022/03/13 05:18:59;;;;;;;;;49.00;39.75;;;;;-0.14;66.17;102451.31;146601;588;46021;-74
2022/03/13 05:21:50;;;;;;;;;58.75;43.75;;;;;0.24;66.21;102448.28;146599;628;46034;-74
2022/03/13 05:24:43;;;;;;;;;54.50;41.00;;;;;1.00;65.00;102447.84;146602;588;46010;-77
2022/03/13 05:27:35;;;;;;;;;49.75;42.00;;;;;1.81;63.58;102453.00;146600;566;46014;-77
2022/03/13 05:30:27;;;;;;;;;54.50;43.00;;;;;2.76;60.21;102452.47;146599;649;46010;-74
2022/03/13 05:33:19;;;;;;;;;54.00;42.25;;;;;3.57;58.86;102455.22;146601;582;47013;-74
2022/03/13 05:36:12;;;;;;;;;59.75;47.75;;;;;4.28;58.57;102449.06;146604;724;46027;-76
2022/03/13 05:39:04;;;;;;;;;58.50;46.00;;;;;4.96;56.15;102454.31;146598;594;46016;-81
2022/03/13 05:41:56;;;;;;;;;61.00;49.00;;;;;5.47;53.28;102460.28;146601;611;47021;-80
2022/03/13 05:44:48;;;;;;;;;58.50;46.50;;;;;5.96;54.95;102459.09;146601;827;46016;-81
2022/03/13 05:47:51;;;;;;;;;61.50;47.25;;;;;6.47;51.74;102457.13;146602;610;46020;-80
2022/03/13 05:50:43;;;;;;;;;57.75;42.50;;;;;6.67;51.32;102451.31;146601;595;46012;-91
2022/03/13 05:53:35;;;;;;;;;53.75;43.25;;;;;6.89;50.51;102449.97;146605;571;46020;-77
2022/03/13 05:56:28;;;;;;;;;55.50;44.25;;;;;7.04;50.65;102454.72;146598;613;47014;-75
2022/03/13 05:59:22;;;;;;;;;53.00;42.25;;;;;7.03;48.75;102456.41;146600;574;46020;-75
2022/03/13 06:02:14;;;;;;;;;50.75;40.50;;;;;6.87;48.42;102454.06;146601;583;46013;-76
2022/03/13 06:05:07;;;;;;;;;52.00;42.00;;;;;6.65;49.20;102461.47;146603;711;46010;-83
2022/03/13 06:07:59;;;;;;;;;55.00;43.75;;;;;6.44;50.18;102457.75;146599;575;47012;-74
2022/03/13 06:10:51;;;;;;;;;51.50;40.25;;;;;6.27;49.24;102467.22;146604;653;46010;-79
2022/03/13 06:13:43;;;;;;;;;59.25;46.25;;;;;6.09;51.04;102467.25;146600;653;46016;-73
2022/03/13 06:16:35;;;;;;;;;54.25;43.50;;;;;5.94;51.03;102465.75;146604;690;46020;-75
2022/03/13 06:19:28;;;;;;;;;47.75;37.50;;;;;5.86;50.74;102459.84;146603;649;46012;-75
2022/03/13 06:22:21;;;;;;;;;57.00;44.75;;;;;5.87;51.01;102471.03;146604;572;46010;-74
2022/03/13 06:25:14;;;;;;;;;37.75;34.00;;;;;5.83;50.37;102459.53;146599;631;46016;-74
2022/03/13 06:28:07;;;;;;;;;45.00;37.00;;;;;5.75;51.42;102470.75;146600;580;46020;-73
2022/03/13 06:30:59;;;;;;;;;39.50;33.50;;;;;5.76;50.42;102472.53;146600;563;46034;-74
2022/03/13 06:33:51;;;;;;;;;37.75;30.25;;;;;5.77;51.17;102475.28;146603;672;46021;-74
2022/03/13 06:36:46;;;;;;;;;34.75;32.25;;;;;5.84;50.94;102469.06;146599;579;46022;-74
2022/03/13 06:39:39;;;;;;;;;42.00;35.50;;;;;5.93;50.75;102475.16;146600;638;46917;-74
2022/03/13 06:42:31;;;;;;;;;38.50;33.75;;;;;6.01;49.46;102468.16;146600;581;46016;-74
2022/03/13 06:45:24;;;;;;;;;37.50;34.25;;;;;6.18;51.33;102481.03;146603;572;46010;-75
2022/03/13 06:48:21;;;;;;;;;39.75;34.75;;;;;6.31;50.36;102475.38;146601;590;45017;-79
2022/03/13 06:51:13;;;;;;;;;42.50;36.25;;;;;6.42;50.01;102479.91;146602;638;46020;-77
2022/03/13 06:54:06;;;;;;;;;48.75;39.00;;;;;6.51;51.08;102484.09;146598;624;46013;-78
2022/03/13 06:56:58;;;;;;;;;38.75;35.25;;;;;6.57;49.00;102479.53;146599;630;46021;-78
2022/03/13 06:59:50;;;;;;;;;42.25;35.00;;;;;6.67;50.07;102477.09;146597;651;47012;-76
2022/03/13 07:02:42;;;;;;;;;49.50;40.50;;;;;6.78;50.01;102476.41;146601;704;46020;-74
2022/03/13 07:05:34;;;;;;;;;52.00;38.50;;;;;6.85;49.74;102480.47;146601;630;46012;-74
2022/03/13 07:08:26;;;;;;;;;49.50;39.00;;;;;6.84;50.90;102474.41;146603;611;46026;-73
2022/03/13 07:11:18;;;;;;;;;47.75;38.75;;;;;6.88;50.73;102483.34;146600;661;46017;-73
2022/03/13 07:14:11;;;;;;;;;44.75;35.50;;;;;6.92;48.38;102470.91;146601;622;46020;-73
2022/03/13 07:17:03;;;;;;;;;50.75;41.25;;;;;7.00;49.06;102478.44;146596;589;47014;-73
2022/03/13 07:19:55;;;;;;;;;54.25;41.00;;;;;7.00;49.39;102483.59;146601;585;46020;-74
2022/03/13 07:22:48;;;;;;;;;50.25;41.00;;;;;7.01;49.99;102481.16;146601;587;46012;-74
2022/03/13 07:25:40;;;;;;;;;59.25;44.00;;;;;7.05;49.57;102480.69;146602;602;46020;-71
2022/03/13 07:28:32;;;;;;;;;62.25;46.25;;;;;7.13;51.07;102477.16;146601;577;46016;-70
2022/03/13 07:31:25;;;;;;;;;54.25;44.50;;;;;7.27;51.07;102478.41;146602;598;46010;-70
2022/03/13 07:34:17;;;;;;;;;56.75;45.25;;;;;7.37;50.43;102475.00;146599;629;46017;-70
2022/03/13 07:37:12;;;;;;;;;70.00;55.25;;;;;7.47;49.08;102485.41;146600;632;47010;-70
2022/03/13 07:40:04;;;;;;;;;56.00;41.75;;;;;7.57;49.75;102485.50;146599;591;46014;-71
2022/03/13 07:42:57;;;;;;;;;53.75;40.50;;;;;7.66;49.81;102484.50;146604;606;46020;-73
2022/03/13 07:45:50;;;;;;;;;50.75;40.50;;;;;7.80;49.05;102484.09;146600;592;46012;-72
2022/03/13 07:48:43;;;;;;;;;26.25;24.75;;;;;7.85;44.67;102476.00;146600;645;46021;-70
2022/03/13 07:51:35;;;;;;;;;37.25;32.00;;;;;7.90;44.32;102481.56;146599;573;46012;-74
2022/03/13 07:54:27;;;;;;;;;37.25;31.50;;;;;7.94;44.16;102478.47;146600;571;46011;-73
2022/03/13 07:57:19;;;;;;;;;35.00;33.75;;;;;8.04;44.73;102475.97;146601;613;46016;-73
2022/03/13 08:00:12;;;;;;;;;38.50;31.50;;;;;8.21;45.31;102481.72;146604;569;46010;-72
2022/03/13 08:03:04;;;;;;;;;40.50;34.00;;;;;8.41;45.12;102475.75;146598;579;46921;-71
2022/03/13 08:05:56;;;;;;;;;32.50;30.00;;;;;8.60;42.92;102471.44;146601;631;46020;-69
2022/03/13 08:08:49;;;;;;;;;41.50;32.50;;;;;8.84;44.47;102477.81;146598;569;46016;-70
2022/03/13 08:11:42;;;;;;;;;39.75;33.25;;;;;8.97;42.90;102469.41;146604;635;46010;-70
2022/03/13 08:14:34;;;;;;;;;42.00;36.00;;;;;9.02;43.67;102475.88;146601;577;45040;-72
2022/03/13 08:17:26;;;;;;;;;31.00;29.50;;;;;9.17;43.59;102479.78;146602;580;46020;-70
2022/03/13 08:20:18;;;;;;;;;35.75;32.25;;;;;9.34;43.41;102475.13;146598;576;46012;-73
2022/03/13 08:23:10;;;;;;;;;48.25;37.25;;;;;9.45;42.99;102476.94;146600;582;46020;-75
2022/03/13 08:26:02;;;;;;;;;45.25;37.00;;;;;9.51;42.48;102480.03;146599;578;46017;-79
2022/03/13 08:28:54;;;;;;;;;44.25;34.75;;;;;9.60;44.08;102470.44;146603;580;46020;-81
2022/03/13 08:31:47;;;;;;;;;37.50;33.50;;;;;9.89;44.40;102471.94;146603;598;45017;-73
2022/03/13 08:34:39;;;;;;;;;36.25;30.50;;;;;10.10;41.31;102476.28;146601;603;46020;-71
2022/03/13 08:37:31;;;;;;;;;38.25;34.25;;;;;10.25;43.35;102461.06;146601;635;46014;-72
2022/03/13 08:40:25;;;;;;;;;36.25;32.00;;;;;10.44;39.84;102458.28;146606;578;46010;-77
2022/03/13 08:43:18;;;;;;;;;41.50;33.50;;;;;10.58;41.85;102462.84;146598;565;47012;-74
2022/03/13 08:46:12;;;;;;;;;52.50;39.25;;;;;10.70;41.29;102464.59;146602;592;46021;-73
2022/03/13 08:49:04;;;;;;;;;42.25;35.00;;;;;10.79;39.79;102457.53;146599;570;47012;-77
2022/03/13 08:51:56;;;;;;;;;42.75;34.50;;;;;10.85;39.64;102455.44;146600;597;46020;-87
2022/03/13 08:54:48;;;;;;;;;38.75;33.25;;;;;10.81;38.11;102453.34;146599;616;46017;-73
2022/03/13 08:57:41;;;;;;;;;40.50;33.75;;;;;10.83;39.91;102451.78;146601;597;46010;-74
2022/03/13 09:00:35;;;;;;;;;33.25;31.50;;;;;10.94;39.51;102450.06;146599;648;46016;-68
2022/03/13 09:03:28;;;;;;;;;31.75;29.25;;;;;11.10;40.51;102450.44;146603;569;46021;-70
2022/03/13 09:06:21;;;;;;;;;37.75;32.00;;;;;11.27;39.67;102449.09;146596;564;46921;-70
2022/03/13 09:09:13;;;;;;;;;36.25;30.75;;;;;11.31;38.48;102446.87;146600;604;46020;-69
2022/03/13 09:12:06;;;;;;;;;31.00;29.25;;;;;11.31;38.03;102456.38;146601;577;46016;-71
2022/03/13 09:14:58;;;;;;;;;41.00;34.75;;;;;11.31;39.26;102446.87;146604;569;47012;-71
2022/03/13 09:17:53;;;;;;;;;37.00;31.75;;;;;11.49;39.39;102447.31;146598;567;47484;-73
2022/03/13 09:20:46;;;;;;;;;35.50;31.00;;;;;11.74;36.68;102444.91;146597;669;47012;-71
2022/03/13 09:23:38;;;;;;;;;33.25;26.75;;;;;11.78;38.53;102441.72;146599;632;47015;-70
2022/03/13 09:26:30;;;;;;;;;39.50;32.50;;;;;11.82;38.20;102450.66;146605;595;46020;-70
2022/03/13 09:29:22;;;;;;;;;35.00;31.25;;;;;12.03;38.52;102440.94;146598;571;47012;-71
2022/03/13 09:32:14;;;;;;;;;28.00;25.50;;;;;12.14;36.58;102433.91;146603;589;46010;-76
2022/03/13 09:35:06;;;;;;;;;30.75;27.50;;;;;12.22;38.25;102435.38;146597;590;46016;-75
2022/03/13 09:37:58;;;;;;;;;40.00;35.25;;;;;12.41;35.71;102427.19;146598;647;46020;-75
2022/03/13 09:40:50;;;;;;;;;33.75;31.25;;;;;12.50;35.22;102421.75;146600;626;46016;-73
2022/03/13 09:43:43;;;;;;;;;27.25;23.75;;;;;12.40;34.14;102421.09;146600;569;46026;-71
2022/03/13 09:46:35;;;;;;;;;33.25;29.00;;;;;12.26;35.13;102419.19;146600;649;46921;-71
2022/03/13 09:49:27;;;;;;;;;25.25;24.50;;;;;12.33;37.69;102429.22;146605;612;46010;-71
2022/03/13 09:52:19;;;;;;;;;23.25;22.00;;;;;12.55;35.44;102420.34;146601;740;46016;-70
2022/03/13 09:55:12;;;;;;;;;39.00;33.50;;;;;12.76;35.90;102420.94;146603;583;47010;-70
2022/03/13 09:58:04;;;;;;;;;30.00;28.75;;;;;12.94;36.76;102401.38;146601;595;46016;-70
2022/03/13 10:00:56;;;;;;;;;34.00;28.00;;;;;13.18;36.95;102397.84;146606;615;46010;-70
2022/03/13 10:03:49;;;;;;;;;29.25;24.50;;;;;13.40;37.02;102388.91;146597;669;47014;-71
2022/03/13 10:07:10;;;;;;;;;30.25;27.25;;;;;13.66;39.96;102388.00;146602;615;46010;-71
2022/03/13 10:10:15;;;;;;;;;32.00;29.00;;;;;13.86;38.75;102390.19;146600;588;46026;-71
2022/03/13 10:13:08;;;;;;;;;25.75;23.75;;;;;14.03;35.58;102378.22;146603;571;46020;-71
2022/03/13 10:16:00;;;;;;;;;32.50;29.75;;;;;14.20;35.93;102373.16;146602;699;46012;-72
2022/03/13 10:18:53;;;;;;;;;28.25;25.00;;;;;14.33;33.50;102363.59;146601;659;46010;-71
2022/03/13 10:22:03;;;;;;;;;27.75;27.75;;;;;14.29;36.21;102361.59;146601;566;46012;-72
2022/03/13 10:24:55;;;;;;;;;36.25;31.50;;;;;14.31;37.26;102359.09;146608;581;45021;-71
2022/03/13 10:27:47;;;;;;;;;22.75;21.25;;;;;14.22;33.88;102362.03;146600;767;46016;-71
2022/03/13 10:30:39;;;;;;;;;20.00;18.25;;;;;13.92;32.69;102362.69;146601;583;46021;-70
2022/03/13 10:33:52;;;;;;;;;23.50;20.50;;;;;13.51;35.27;102351.41;146601;596;45016;-71
2022/03/13 10:36:46;;;;;;;;;23.00;21.75;;;;;13.10;35.07;102354.75;146603;590;46020;-69
2022/03/13 10:39:38;;;;;;;;;25.50;24.25;;;;;12.95;34.88;102348.50;146601;591;46016;-69
2022/03/13 10:42:50;;;;;;;;;22.75;20.50;;;;;12.71;39.68;102296.59;146602;574;46020;-70
2022/03/13 10:45:51;;;;;;;;;28.50;25.50;;;;;12.75;35.12;102341.06;146599;570;46016;-70
2022/03/13 10:48:48;;;;;;;;;27.50;26.25;;;;;12.42;34.44;102337.94;146602;580;46012;-70
2022/03/13 10:51:45;;;;;;;;;24.75;22.75;;;;;12.24;37.03;102341.06;146600;599;46016;-70
2022/03/13 10:54:38;;;;;;;;;32.25;29.50;;;;;12.17;37.89;102333.62;146603;613;46010;-70
2022/03/13 10:57:30;;;;;;;;;20.25;16.25;;;;;12.25;36.95;102323.78;146598;590;46016;-70
2022/03/13 11:00:23;;;;;;;;;23.75;20.25;;;;;12.15;32.13;102324.81;146600;570;47010;-70
2022/03/13 11:03:19;;;;;;;;;34.50;28.00;;;;;12.02;37.85;102319.53;146599;565;46920;-70
2022/03/13 11:06:11;;;;;;;;;30.25;25.75;;;;;12.07;37.24;102327.66;146601;660;46020;-70
2022/03/13 11:09:03;;;;;;;;;28.25;24.25;;;;;12.07;36.89;102319.88;146600;586;46016;-70
2022/03/13 11:12:09;;;;;;;;;33.25;28.25;;;;;11.89;39.25;102315.16;146599;691;47010;-69
2022/03/13 11:15:02;;;;;;;;;29.25;26.50;;;;;11.62;36.67;102306.28;146598;594;47012;-70
2022/03/13 11:17:55;;;;;;;;;23.75;21.00;;;;;11.46;38.26;102314.63;146603;574;46020;-70
2022/03/13 11:20:47;;;;;;;;;27.00;25.75;;;;;11.29;37.36;102307.31;146599;646;46016;-69
2022/03/13 11:23:40;;;;;;;;;24.75;23.75;;;;;11.17;37.87;102306.41;146602;580;46020;-70
2022/03/13 11:26:33;;;;;;;;;22.00;19.50;;;;;11.13;37.68;102305.28;146602;569;46012;-70
2022/03/13 11:29:46;;;;;;;;;22.75;19.75;;;;;11.08;39.21;102306.62;146604;604;45021;-69
2022/03/13 11:32:59;;;;;;;;;36.25;30.75;;;;;11.04;39.79;102289.91;146600;603;46016;-70
2022/03/13 11:35:51;;;;;;;;;22.50;21.00;;;;;10.92;34.20;102301.09;146603;637;46028;-69
2022/03/13 11:38:58;;;;;;;;;21.00;20.00;;;;;10.85;39.53;102294.53;146601;579;46012;-70
2022/03/13 11:41:51;;;;;;;;;23.25;21.75;;;;;10.82;35.79;102292.59;146602;580;46010;-70
2022/03/13 11:44:43;;;;;;;;;26.50;25.25;;;;;10.43;37.28;102204.91;146599;579;46017;-70
2022/03/13 11:47:37;;;;;;;;;28.00;25.00;;;;;11.01;37.29;102271.53;146601;598;46010;-70
2022/03/13 11:50:55;;;;;;;;;26.75;21.25;;;;;11.25;37.90;102275.03;146599;607;47012;-70
2022/03/13 11:53:49;;;;;;;;;30.75;28.50;;;;;11.18;32.83;102277.03;146601;654;46021;-71
2022/03/13 11:56:50;;;;;;;;;21.25;20.25;;;;;11.18;33.57;102274.44;146600;626;46016;-69
2022/03/13 11:59:51;;;;;;;;;35.00;30.00;;;;;11.15;33.36;102264.75;146606;634;46010;-69
2022/03/13 12:02:51;;;;;;;;;25.00;23.50;;;;;11.03;33.79;102261.28;146599;627;46029;-70
2022/03/13 12:05:53;;;;;;;;;21.25;18.25;;;;;11.03;31.23;102259.56;146600;608;46010;-70
2022/03/13 12:09:14;;;;;;;;;17.25;13.75;;;;;10.76;32.26;102216.91;146601;628;46016;-70
2022/03/13 12:12:20;;;;;;;;;28.50;22.75;;;;;11.22;36.57;102256.63;146603;612;46020;-70
2022/03/13 12:15:12;;;;;;;;;25.50;24.00;;;;;11.43;34.63;102248.56;146598;591;46035;-70
2022/03/13 12:18:22;;;;;;;;;23.75;18.25;;;;;11.62;38.07;102248.19;146600;589;46020;-70
2022/03/13 12:21:18;;;;;;;;;17.75;17.75;;;;;11.73;34.82;102249.88;146599;612;46016;-70
2022/03/13 12:24:18;;;;;;;;;20.25;19.00;;;;;11.82;35.46;102249.63;146599;764;46010;-70
2022/03/13 12:27:10;;;;;;;;;19.25;18.25;;;;;11.82;33.59;102240.13;146597;590;46016;-70
2022/03/13 12:30:03;;;;;;;;;22.50;20.25;;;;;11.80;36.27;102242.59;146601;754;47012;-70
2022/03/13 12:33:10;;;;;;;;;19.25;18.50;;;;;11.68;37.35;102233.97;146596;588;47012;-70
2022/03/13 12:36:03;;;;;;;;;17.75;14.75;;;;;11.52;34.92;102225.84;146602;628;46010;-68
2022/03/13 12:38:56;;;;;;;;;18.00;15.25;;;;;11.45;34.86;102232.31;146601;582;46016;-71
2022/03/13 12:41:49;;;;;;;;;16.25;13.50;;;;;11.35;34.90;102229.84;146601;632;46020;-71
2022/03/13 12:44:41;;;;;;;;;18.00;16.50;;;;;11.22;35.88;102224.56;146602;590;45017;-71
2022/03/13 12:47:39;;;;;;;;;22.00;20.25;;;;;11.20;37.46;102224.44;146600;640;47010;-71
2022/03/13 12:50:31;;;;;;;;;21.00;21.00;;;;;11.27;38.13;102223.19;146598;603;46017;-77
2022/03/13 12:53:26;;;;;;;;;13.25;12.75;;;;;11.30;35.43;102213.91;146600;584;47010;-72
2022/03/13 12:56:22;;;;;;;;;18.00;16.50;;;;;11.31;36.87;102226.13;146601;703;46012;-73
2022/03/13 12:59:29;;;;;;;;;16.00;15.00;;;;;11.40;35.77;102215.50;146601;675;46021;-71
2022/03/13 13:02:26;;;;;;;;;15.50;15.50;;;;;11.45;33.94;102223.63;146598;578;46024;-71
2022/03/13 13:05:18;;;;;;;;;20.50;19.00;;;;;11.45;35.67;102224.53;146599;590;46917;-71
2022/03/13 13:08:10;;;;;;;;;21.75;21.75;;;;;11.15;36.55;102173.88;146599;588;46017;-71
2022/03/13 13:11:02;;;;;;;;;20.25;18.00;;;;;11.32;36.50;102214.94;146600;614;47012;-71
2022/03/13 13:14:02;;;;;;;;;20.75;18.50;;;;;11.19;36.32;102208.78;146598;582;47013;-72
2022/03/13 13:16:54;;;;;;;;;17.00;17.00;;;;;11.09;36.78;102212.41;146598;640;46010;-71